| time (UTC) | temp F | wind direction | speed MPH | gust MPH | rain 1hr in | rain 24hr in | rain mn in | humidity % | barometer mb |
| 20260506062015 | 64 | 156 | 9.0 | 31.0 | 0.00 | 0.88 | 0.85 | 89 | 1009.1 |
| 20260506061515 | 64 | 181 | 12.0 | 31.0 | 0.00 | 0.89 | 0.85 | 89 | 1009.0 |
| 20260506061015 | 63 | 147 | 6.0 | 26.0 | 0.01 | 0.89 | 0.85 | 89 | 1008.8 |
| 20260506060515 | 63 | 174 | 12.0 | 26.0 | 0.01 | 0.90 | 0.85 | 89 | 1008.5 |
| 20260506051015 | 62 | 140 | 9.0 | 25.0 | 0.05 | 1.06 | 0.84 | 91 | 1008.9 |
| 20260506050515 | 62 | 154 | 6.0 | 16.0 | 0.05 | 1.07 | 0.84 | 91 | 1008.8 |
| 20260506045015 | 62 | 167 | 11.0 | 27.0 | 0.04 | 1.12 | 0.83 | 91 | 1008.9 |
| 20260506044535 | 62 | 157 | 12.0 | 25.0 | 0.03 | 1.13 | 0.83 | 91 | 1008.7 |
| 20260506044015 | 62 | 140 | 10.0 | 18.0 | 0.03 | 1.13 | 0.83 | 91 | 1008.7 |
| 20260506043515 | 62 | 169 | 6.0 | 15.0 | 0.02 | 1.14 | 0.81 | 91 | 1008.9 |
| 20260506043035 | 62 | 288 | 4.0 | 11.0 | 0.02 | 1.15 | 0.80 | 91 | 1008.8 |
| 20260506042515 | 62 | 227 | 4.0 | 9.0 | 0.01 | 1.16 | 0.80 | 91 | 1008.7 |
| 20260506042015 | 62 | 101 | 3.0 | 8.0 | 0.17 | 1.19 | 0.80 | 91 | 1008.6 |
| 20260506041515 | 61 | 120 | 4.0 | 8.0 | 0.34 | 1.23 | 0.80 | 91 | 1008.7 |
| 20260506041015 | 61 | 113 | 1.0 | 6.0 | 0.35 | 1.27 | 0.80 | 90 | 1008.8 |
| 20260506040515 | 61 | 93 | 0.0 | 3.0 | 0.35 | 1.28 | 0.80 | 90 | 1008.8 |
| 20260506040015 | 61 | 89 | 2.0 | 3.0 | 0.37 | 1.29 | 0.80 | 90 | 1009.0 |
| 20260506035515 | 61 | 91 | 0.0 | 3.0 | 0.37 | 1.30 | 0.80 | 90 | 1009.1 |
| 20260506035015 | 61 | 0.0 | 0.0 | 0.37 | 1.31 | 0.80 | 90 | 1009.2 | |
| 20260506034515 | 61 | 0.0 | 2.0 | 0.38 | 1.33 | 0.80 | 90 | 1009.3 | |
| 20260506034035 | 61 | 119 | 0.0 | 7.0 | 0.45 | 1.35 | 0.80 | 90 | 1009.3 |
| 20260506033515 | 62 | 105 | 3.0 | 10.0 | 0.46 | 1.38 | 0.80 | 90 | 1009.3 |
| 20260506033015 | 62 | 164 | 5.0 | 16.0 | 0.45 | 1.38 | 0.79 | 90 | 1009.3 |
| 20260506032515 | 63 | 128 | 9.0 | 24.0 | 0.45 | 1.38 | 0.79 | 90 | 1009.2 |
| 20260506032015 | 63 | 189 | 14.0 | 24.0 | 0.29 | 1.22 | 0.63 | 90 | 1009.4 |
| 20260506031515 | 62 | 182 | 11.0 | 26.0 | 0.14 | 1.05 | 0.46 | 91 | 1009.2 |
| 20260506031015 | 62 | 217 | 12.0 | 26.0 | 0.14 | 1.04 | 0.45 | 91 | 1009.2 |
| 20260506030515 | 62 | 186 | 9.0 | 25.0 | 0.14 | 1.04 | 0.45 | 91 | 1009.0 |
| 20260506030015 | 62 | 169 | 5.0 | 13.0 | 0.13 | 1.02 | 0.43 | 91 | 1009.0 |
| 20260506025515 | 61 | 288 | 5.0 | 13.0 | 0.14 | 1.02 | 0.43 | 91 | 1009.0 |
| 20260506025035 | 61 | 174 | 4.0 | 18.0 | 0.18 | 1.04 | 0.43 | 91 | 1008.9 |
| 20260506024514 | 60 | 106 | 8.0 | 18.0 | 0.17 | 1.03 | 0.42 | 91 | 1008.8 |
| 20260506024055 | 59 | 119 | 2.0 | 9.0 | 0.12 | 0.98 | 0.35 | 90 | 1008.7 |
| 20260506023515 | 59 | 88 | 3.0 | 9.0 | 0.12 | 0.98 | 0.34 | 90 | 1008.6 |
| 20260506023015 | 59 | 103 | 4.0 | 9.0 | 0.13 | 0.98 | 0.34 | 90 | 1008.7 |
| 20260506022515 | 59 | 114 | 3.0 | 7.0 | 0.13 | 0.99 | 0.34 | 90 | 1008.8 |
| 20260506022015 | 59 | 126 | 4.0 | 7.0 | 0.13 | 1.01 | 0.34 | 90 | 1009.0 |
| 20260506021535 | 60 | 117 | 3.0 | 7.0 | 0.10 | 0.99 | 0.31 | 90 | 1009.1 |
| 20260506021034 | 60 | 109 | 3.0 | 10.0 | 0.09 | 1.00 | 0.31 | 90 | 1009.2 |
| 20260506020534 | 60 | 81 | 4.0 | 10.0 | 0.09 | 1.02 | 0.31 | 90 | 1009.4 |
| 20260506020055 | 60 | 72 | 3.0 | 10.0 | 0.08 | 1.02 | 0.29 | 90 | 1009.6 |
| 20260506015514 | 60 | 80 | 5.0 | 10.0 | 0.07 | 1.02 | 0.28 | 90 | 1009.5 |
| 20260506015015 | 60 | 77 | 5.0 | 10.0 | 0.03 | 0.99 | 0.24 | 90 | 1009.5 |
| 20260506014554 | 60 | 77 | 3.0 | 8.0 | 0.03 | 1.00 | 0.24 | 90 | 1009.7 |
| 20260506014015 | 61 | 123 | 3.0 | 8.0 | 0.02 | 1.00 | 0.23 | 90 | 1010.0 |
| 20260506013514 | 60 | 77 | 2.0 | 4.0 | 0.01 | 1.00 | 0.22 | 90 | 1009.8 |
| 20260506013034 | 61 | 73 | 2.0 | 4.0 | 0.00 | 1.00 | 0.21 | 90 | 1009.9 |
| 20260506012514 | 61 | 100 | 2.0 | 4.0 | 0.00 | 1.00 | 0.21 | 89 | 1010.1 |
| 20260506012014 | 61 | 106 | 1.0 | 4.0 | 0.00 | 1.00 | 0.21 | 89 | 1010.0 |
| 20260506011535 | 61 | 69 | 1.0 | 4.0 | 0.00 | 1.01 | 0.21 | 89 | 1009.9 |
| 20260506011015 | 61 | 74 | 1.0 | 3.0 | 0.00 | 1.02 | 0.21 | 89 | 1010.1 |
| 20260506010515 | 61 | 85 | 1.0 | 4.0 | 0.01 | 1.02 | 0.21 | 89 | 1010.2 |
| 20260506010014 | 61 | 112 | 2.0 | 4.0 | 0.01 | 1.03 | 0.21 | 89 | 1010.3 |
| 20260506005514 | 61 | 98 | 1.0 | 6.0 | 0.02 | 1.04 | 0.21 | 89 | 1010.2 |
| 20260506005016 | 61 | 107 | 3.0 | 8.0 | 0.06 | 1.04 | 0.21 | 89 | 1010.3 |
| 20260506004536 | 61 | 109 | 4.0 | 8.0 | 0.09 | 1.04 | 0.21 | 89 | 1010.4 |
| 20260506004015 | 61 | 105 | 2.0 | 6.0 | 0.17 | 1.04 | 0.21 | 89 | 1010.6 |
| 20260506003516 | 61 | 84 | 2.0 | 7.0 | 0.20 | 1.04 | 0.21 | 89 | 1010.6 |
| 20260506003016 | 61 | 107 | 4.0 | 8.0 | 0.21 | 1.04 | 0.21 | 88 | 1010.7 |
| 20260506002516 | 61 | 108 | 3.0 | 9.0 | 0.21 | 1.04 | 0.21 | 88 | 1010.5 |
| 20260506002016 | 62 | 101 | 5.0 | 9.0 | 0.21 | 1.04 | 0.21 | 88 | 1010.7 |
| 20260506001517 | 62 | 119 | 4.0 | 10.0 | 0.21 | 1.04 | 0.21 | 88 | 1010.8 |
| 20260506001016 | 62 | 117 | 3.0 | 10.0 | 0.21 | 1.04 | 0.21 | 88 | 1010.8 |
| 20260506000517 | 61 | 99 | 3.0 | 9.0 | 0.20 | 1.03 | 0.20 | 87 | 1010.6 |
| 20260506000037 | 61 | 129 | 1.0 | 6.0 | 0.20 | 1.03 | 0.20 | 87 | 1010.7 |
| 20260505235516 | 61 | 117 | 2.0 | 9.0 | 0.20 | 1.02 | 0.20 | 87 | 1010.8 |
| 20260505235016 | 61 | 37 | 4.0 | 15.0 | 0.15 | 0.98 | 0.15 | 86 | 1010.9 |
| 20260505234517 | 62 | 109 | 6.0 | 15.0 | 0.13 | 0.95 | 0.13 | 85 | 1011.1 |
| 20260505234016 | 61 | 171 | 4.0 | 11.0 | 0.04 | 0.87 | 0.04 | 84 | 1011.0 |
| 20260505233517 | 61 | 59 | 2.0 | 7.0 | 0.01 | 0.83 | 0.01 | 84 | 1010.9 |
| 20260505233056 | 61 | 112 | 2.0 | 7.0 | 0.00 | 0.83 | 0.00 | 83 | 1011.0 |
| 20260505232516 | 61 | 143 | 1.0 | 4.0 | 0.00 | 0.83 | 0.00 | 83 | 1011.0 |
| 20260505232017 | 61 | 109 | 2.0 | 5.0 | 0.00 | 0.83 | 0.00 | 83 | 1011.0 |
| 20260505231516 | 61 | 117 | 2.0 | 5.0 | 0.00 | 0.83 | 0.00 | 83 | 1011.3 |
| 20260505231037 | 61 | 124 | 2.0 | 5.0 | 0.00 | 0.83 | 0.00 | 82 | 1011.4 |
| 20260505230516 | 61 | 111 | 2.0 | 5.0 | 0.00 | 0.83 | 0.00 | 82 | 1011.5 |
| 20260505230016 | 61 | 99 | 2.0 | 5.0 | 0.00 | 0.83 | 0.00 | 82 | 1011.5 |
| 20260505225537 | 61 | 90 | 2.0 | 4.0 | 0.00 | 0.83 | 0.00 | 82 | 1011.6 |
| 20260505225016 | 61 | 88 | 2.0 | 5.0 | 0.00 | 0.83 | 0.00 | 82 | 1011.6 |
| 20260505224516 | 61 | 89 | 1.0 | 5.0 | 0.00 | 0.83 | 0.00 | 82 | 1011.8 |
| 20260505224016 | 61 | 76 | 2.0 | 5.0 | 0.00 | 0.83 | 0.00 | 82 | 1011.9 |
| 20260505223517 | 61 | 72 | 2.0 | 5.0 | 0.00 | 0.83 | 0.00 | 82 | 1012.0 |
| 20260505223016 | 61 | 77 | 2.0 | 5.0 | 0.00 | 0.83 | 0.00 | 82 | 1012.0 |
| 20260505222536 | 61 | 91 | 2.0 | 5.0 | 0.00 | 0.83 | 0.00 | 83 | 1012.1 |
| 20260505222036 | 61 | 88 | 1.0 | 4.0 | 0.00 | 0.83 | 0.00 | 83 | 1012.1 |
| 20260505221536 | 61 | 83 | 2.0 | 4.0 | 0.00 | 0.83 | 0.00 | 83 | 1012.2 |
| 20260505221036 | 61 | 107 | 2.0 | 6.0 | 0.00 | 0.83 | 0.00 | 83 | 1012.1 |
| 20260505220516 | 61 | 118 | 3.0 | 6.0 | 0.00 | 0.83 | 0.00 | 83 | 1012.0 |
| 20260505220016 | 61 | 104 | 1.0 | 4.0 | 0.00 | 0.83 | 0.83 | 83 | 1012.0 |
| 20260505215517 | 61 | 90 | 1.0 | 6.0 | 0.00 | 0.83 | 0.83 | 83 | 1012.1 |
| 20260505215016 | 61 | 120 | 2.0 | 6.0 | 0.00 | 0.83 | 0.83 | 83 | 1012.1 |
| 20260505214536 | 61 | 98 | 2.0 | 5.0 | 0.00 | 0.83 | 0.83 | 83 | 1012.3 |
| 20260505214037 | 61 | 103 | 2.0 | 5.0 | 0.00 | 0.83 | 0.83 | 83 | 1012.3 |
| 20260505213516 | 61 | 115 | 1.0 | 4.0 | 0.00 | 0.83 | 0.83 | 84 | 1012.4 |
| 20260505213117 | 61 | 118 | 1.0 | 4.0 | 0.00 | 0.83 | 0.83 | 84 | 1012.4 |
| 20260505212516 | 61 | 112 | 2.0 | 6.0 | 0.00 | 0.83 | 0.83 | 84 | 1012.5 |
| 20260505212016 | 61 | 101 | 2.0 | 6.0 | 0.00 | 0.83 | 0.83 | 84 | 1012.5 |
| 20260505211516 | 61 | 121 | 3.0 | 6.0 | 0.00 | 0.83 | 0.83 | 84 | 1012.4 |
| 20260505211017 | 61 | 128 | 3.0 | 5.0 | 0.00 | 0.83 | 0.83 | 84 | 1012.4 |
| 20260505210517 | 61 | 123 | 2.0 | 4.0 | 0.00 | 0.83 | 0.83 | 84 | 1012.5 |
| 20260505210016 | 61 | 102 | 2.0 | 7.0 | 0.00 | 0.83 | 0.83 | 84 | 1012.5 |
| 20260505205516 | 61 | 120 | 3.0 | 7.0 | 0.00 | 0.83 | 0.83 | 85 | 1012.6 |
| 20260505205016 | 61 | 122 | 2.0 | 4.0 | 0.00 | 0.83 | 0.83 | 85 | 1012.6 |
| 20260505204516 | 61 | 109 | 2.0 | 4.0 | 0.00 | 0.83 | 0.83 | 84 | 1012.8 |
| 20260505204024 | 61 | 102 | 2.0 | 6.0 | 0.00 | 0.83 | 0.83 | 84 | 1012.8 |
| 20260505203516 | 61 | 99 | 3.0 | 6.0 | 0.00 | 0.83 | 0.83 | 84 | 1012.8 |
| 20260505203017 | 62 | 112 | 2.0 | 5.0 | 0.00 | 0.83 | 0.83 | 84 | 1012.8 |
| 20260505202517 | 62 | 110 | 2.0 | 5.0 | 0.00 | 0.83 | 0.83 | 84 | 1012.8 |
| 20260505202017 | 62 | 75 | 1.0 | 4.0 | 0.00 | 0.83 | 0.83 | 84 | 1012.9 |
| 20260505201516 | 62 | 83 | 2.0 | 4.0 | 0.00 | 0.83 | 0.83 | 84 | 1013.0 |
| 20260505201016 | 62 | 67 | 2.0 | 4.0 | 0.00 | 0.83 | 0.83 | 83 | 1013.0 |
| 20260505200516 | 62 | 80 | 2.0 | 4.0 | 0.00 | 0.83 | 0.83 | 83 | 1013.0 |
| 20260505200016 | 63 | 90 | 2.0 | 5.0 | 0.00 | 0.83 | 0.83 | 83 | 1012.9 |
| 20260505195517 | 63 | 84 | 3.0 | 5.0 | 0.00 | 0.83 | 0.83 | 82 | 1012.9 |
| 20260505195016 | 63 | 92 | 0.0 | 2.0 | 0.00 | 0.83 | 0.83 | 82 | 1012.9 |
| 20260505194517 | 63 | 132 | 0.0 | 2.0 | 0.00 | 0.83 | 0.83 | 82 | 1012.9 |
| 20260505194037 | 63 | 149 | 1.0 | 2.0 | 0.00 | 0.83 | 0.83 | 82 | 1012.9 |
| 20260505193516 | 63 | 123 | 0.0 | 3.0 | 0.00 | 0.83 | 0.83 | 82 | 1012.8 |
| 20260505193016 | 64 | 135 | 1.0 | 3.0 | 0.00 | 0.83 | 0.83 | 81 | 1012.8 |
| 20260505192516 | 64 | 87 | 0.0 | 3.0 | 0.00 | 0.83 | 0.83 | 81 | 1012.8 |
| 20260505192016 | 64 | 77 | 2.0 | 3.0 | 0.00 | 0.83 | 0.83 | 81 | 1012.7 |
| 20260505191516 | 64 | 68 | 1.0 | 4.0 | 0.00 | 0.83 | 0.83 | 81 | 1012.6 |
| 20260505191016 | 64 | 99 | 3.0 | 4.0 | 0.00 | 0.83 | 0.83 | 81 | 1012.5 |
| 20260505190517 | 64 | 127 | 2.0 | 8.0 | 0.00 | 0.83 | 0.83 | 81 | 1012.6 |
| 20260505190017 | 64 | 119 | 3.0 | 8.0 | 0.00 | 0.83 | 0.83 | 80 | 1012.5 |
| 20260505185516 | 64 | 129 | 1.0 | 5.0 | 0.00 | 0.83 | 0.83 | 80 | 1012.4 |
| 20260505185036 | 64 | 151 | 1.0 | 5.0 | 0.00 | 0.83 | 0.83 | 80 | 1012.5 |
| 20260505184517 | 65 | 106 | 2.0 | 7.0 | 0.00 | 0.83 | 0.83 | 79 | 1012.5 |
| 20260505184016 | 65 | 155 | 2.0 | 7.0 | 0.00 | 0.83 | 0.83 | 79 | 1012.6 |
| 20260505183536 | 65 | 141 | 2.0 | 5.0 | 0.00 | 0.83 | 0.83 | 79 | 1012.6 |
| 20260505183017 | 65 | 101 | 2.0 | 5.0 | 0.00 | 0.83 | 0.83 | 79 | 1012.5 |
| 20260505182516 | 65 | 108 | 2.0 | 5.0 | 0.00 | 0.83 | 0.83 | 78 | 1012.5 |
| 20260505182016 | 65 | 126 | 2.0 | 8.0 | 0.00 | 0.83 | 0.83 | 78 | 1012.4 |
| 20260505181516 | 65 | 145 | 4.0 | 11.0 | 0.00 | 0.83 | 0.83 | 78 | 1012.5 |
| 20260505181036 | 65 | 146 | 5.0 | 11.0 | 0.00 | 0.83 | 0.83 | 78 | 1012.5 |
| 20260505180516 | 65 | 154 | 6.0 | 12.0 | 0.00 | 0.83 | 0.83 | 78 | 1012.4 |
| 20260505180036 | 65 | 145 | 5.0 | 10.0 | 0.00 | 0.83 | 0.83 | 78 | 1012.4 |
| 20260505175516 | 65 | 159 | 5.0 | 10.0 | 0.00 | 0.83 | 0.83 | 79 | 1012.4 |
| 20260505175036 | 65 | 162 | 5.0 | 10.0 | 0.00 | 0.83 | 0.83 | 79 | 1012.4 |
| 20260505174536 | 65 | 158 | 3.0 | 12.0 | 0.00 | 0.83 | 0.83 | 79 | 1012.4 |
| 20260505174036 | 65 | 155 | 6.0 | 12.0 | 0.00 | 0.83 | 0.83 | 79 | 1012.5 |
| 20260505173516 | 66 | 164 | 6.0 | 12.0 | 0.00 | 0.83 | 0.83 | 79 | 1012.5 |
| 20260505173017 | 66 | 153 | 6.0 | 14.0 | 0.00 | 0.83 | 0.83 | 79 | 1012.4 |
| 20260505172516 | 66 | 166 | 7.0 | 17.0 | 0.00 | 0.83 | 0.83 | 78 | 1012.3 |
| 20260505172036 | 66 | 166 | 6.0 | 17.0 | 0.00 | 0.83 | 0.83 | 77 | 1012.2 |
| 20260505171516 | 67 | 154 | 5.0 | 13.0 | 0.00 | 0.83 | 0.83 | 77 | 1012.2 |
| 20260505171016 | 67 | 143 | 5.0 | 12.0 | 0.00 | 0.83 | 0.83 | 77 | 1012.1 |
| 20260505170516 | 67 | 140 | 5.0 | 12.0 | 0.00 | 0.83 | 0.83 | 77 | 1012.1 |
| 20260505170016 | 67 | 125 | 7.0 | 12.0 | 0.00 | 0.83 | 0.83 | 77 | 1012.1 |
| 20260505165516 | 67 | 129 | 5.0 | 11.0 | 0.00 | 0.83 | 0.83 | 77 | 1012.1 |
| 20260505165016 | 67 | 128 | 6.0 | 12.0 | 0.00 | 0.83 | 0.83 | 77 | 1012.1 |
| 20260505164516 | 67 | 114 | 6.0 | 14.0 | 0.00 | 0.83 | 0.83 | 76 | 1012.1 |
| 20260505164016 | 67 | 120 | 8.0 | 14.0 | 0.00 | 0.83 | 0.83 | 76 | 1012.1 |
| 20260505163516 | 68 | 119 | 6.0 | 12.0 | 0.00 | 0.83 | 0.83 | 75 | 1012.1 |
| 20260505163016 | 68 | 121 | 6.0 | 11.0 | 0.00 | 0.83 | 0.83 | 75 | 1012.1 |
| 20260505162516 | 68 | 122 | 5.0 | 12.0 | 0.00 | 0.83 | 0.83 | 75 | 1012.2 |
| 20260505162016 | 68 | 125 | 6.0 | 12.0 | 0.00 | 0.83 | 0.83 | 74 | 1012.2 |
| 20260505161516 | 68 | 124 | 5.0 | 10.0 | 0.00 | 0.83 | 0.83 | 74 | 1012.2 |
| 20260505161016 | 68 | 134 | 5.0 | 11.0 | 0.00 | 0.83 | 0.83 | 75 | 1012.3 |
| 20260505160516 | 68 | 145 | 5.0 | 11.0 | 0.00 | 0.83 | 0.83 | 75 | 1012.4 |
| 20260505153036 | 68 | 167 | 7.0 | 14.0 | 0.00 | 0.83 | 0.83 | 74 | 1012.7 |
| 20260505152516 | 68 | 180 | 7.0 | 14.0 | 0.00 | 0.83 | 0.83 | 73 | 1012.7 |
| 20260505152016 | 68 | 168 | 6.0 | 12.0 | 0.00 | 0.83 | 0.83 | 72 | 1012.7 |
| 20260505151516 | 68 | 139 | 4.0 | 15.0 | 0.00 | 0.83 | 0.83 | 72 | 1012.6 |
| 20260505151036 | 69 | 152 | 6.0 | 15.0 | 0.00 | 0.83 | 0.83 | 71 | 1012.7 |
| 20260505150516 | 69 | 149 | 5.0 | 10.0 | 0.00 | 0.83 | 0.83 | 70 | 1012.7 |
| 20260505140516 | 69 | 113 | 7.0 | 12.0 | 0.00 | 0.83 | 0.83 | 72 | 1012.7 |
| 20260505125016 | 68 | 167 | 7.0 | 19.0 | 0.00 | 0.83 | 0.83 | 75 | 1012.8 |
| 20260505124516 | 68 | 123 | 8.0 | 17.0 | 0.00 | 0.83 | 0.83 | 75 | 1012.8 |
| 20260505124015 | 68 | 132 | 8.0 | 17.0 | 0.00 | 0.83 | 0.83 | 75 | 1012.8 |
| 20260505123515 | 68 | 110 | 8.0 | 16.0 | 0.00 | 0.83 | 0.83 | 75 | 1012.8 |
| 20260505123016 | 68 | 113 | 8.0 | 18.0 | 0.00 | 0.83 | 0.83 | 75 | 1012.8 |
| 20260505122516 | 68 | 121 | 8.0 | 18.0 | 0.00 | 0.83 | 0.83 | 75 | 1012.8 |
| 20260505122036 | 68 | 132 | 7.0 | 15.0 | 0.00 | 0.83 | 0.83 | 75 | 1012.8 |
| 20260505121536 | 67 | 124 | 6.0 | 15.0 | 0.00 | 0.83 | 0.83 | 76 | 1012.8 |
| 20260505121015 | 67 | 140 | 7.0 | 13.0 | 0.00 | 0.83 | 0.83 | 76 | 1012.8 |
| 20260505120515 | 67 | 102 | 6.0 | 11.0 | 0.00 | 0.83 | 0.83 | 75 | 1012.8 |
| 20260505120015 | 68 | 113 | 5.0 | 12.0 | 0.00 | 0.83 | 0.83 | 74 | 1012.8 |
| 20260505115535 | 68 | 137 | 6.0 | 14.0 | 0.00 | 0.83 | 0.83 | 75 | 1012.7 |
| 20260505115015 | 68 | 89 | 4.0 | 14.0 | 0.00 | 0.83 | 0.83 | 75 | 1012.8 |
| 20260505114515 | 68 | 90 | 5.0 | 12.0 | 0.00 | 0.83 | 0.83 | 77 | 1012.7 |
| 20260505114015 | 67 | 102 | 3.0 | 13.0 | 0.00 | 0.83 | 0.83 | 79 | 1012.8 |
| 20260505113517 | 67 | 121 | 6.0 | 14.0 | 0.00 | 0.83 | 0.83 | 78 | 1012.9 |
| 20260505113015 | 67 | 145 | 5.0 | 14.0 | 0.00 | 0.83 | 0.83 | 79 | 1013.0 |
| 20260505112516 | 67 | 126 | 6.0 | 16.0 | 0.00 | 0.83 | 0.83 | 79 | 1012.9 |
| 20260505112015 | 66 | 131 | 5.0 | 17.0 | 0.00 | 0.83 | 0.83 | 79 | 1012.8 |
| 20260505111516 | 67 | 132 | 5.0 | 17.0 | 0.00 | 0.83 | 0.83 | 79 | 1012.8 |
| 20260505111015 | 67 | 133 | 7.0 | 13.0 | 0.00 | 0.83 | 0.83 | 79 | 1012.8 |
| 20260505110515 | 67 | 144 | 5.0 | 11.0 | 0.00 | 0.83 | 0.83 | 79 | 1012.7 |
| 20260505102015 | 67 | 110 | 5.0 | 13.0 | 0.01 | 0.83 | 0.83 | 82 | 1012.6 |
| 20260505101536 | 66 | 116 | 6.0 | 12.0 | 0.01 | 0.83 | 0.83 | 83 | 1012.6 |
| 20260505101035 | 66 | 109 | 6.0 | 13.0 | 0.01 | 0.83 | 0.83 | 83 | 1012.5 |
| 20260505100515 | 66 | 108 | 7.0 | 13.0 | 0.01 | 0.83 | 0.83 | 84 | 1012.5 |
| 20260505100016 | 66 | 114 | 7.0 | 14.0 | 0.01 | 0.83 | 0.83 | 84 | 1012.5 |
| 20260505095515 | 66 | 125 | 7.0 | 14.0 | 0.01 | 0.83 | 0.83 | 85 | 1012.3 |
| 20260505095016 | 64 | 126 | 5.0 | 13.0 | 0.01 | 0.83 | 0.83 | 86 | 1012.1 |
| 20260505094515 | 63 | 123 | 2.0 | 10.0 | 0.00 | 0.82 | 0.82 | 85 | 1012.1 |
| 20260505094035 | 62 | 136 | 3.0 | 10.0 | 0.00 | 0.82 | 0.82 | 84 | 1012.2 |
| 20260505093515 | 62 | 179 | 1.0 | 4.0 | 0.00 | 0.82 | 0.82 | 84 | 1012.2 |
| 20260505093015 | 62 | 174 | 1.0 | 4.0 | 0.00 | 0.82 | 0.82 | 85 | 1012.2 |
| 20260505092515 | 62 | 92 | 0.0 | 3.0 | 0.00 | 0.82 | 0.82 | 85 | 1012.1 |
| 20260505092015 | 62 | 66 | 1.0 | 4.0 | 0.00 | 0.82 | 0.82 | 85 | 1012.1 |
| 20260505091516 | 62 | 69 | 2.0 | 4.0 | 0.00 | 0.82 | 0.82 | 85 | 1012.1 |
| 20260505091035 | 61 | 79 | 1.0 | 5.0 | 0.00 | 0.82 | 0.82 | 86 | 1012.1 |
| 20260505090516 | 61 | 105 | 1.0 | 5.0 | 0.00 | 0.82 | 0.82 | 86 | 1012.2 |
| 20260505090015 | 61 | 82 | 3.0 | 7.0 | 0.00 | 0.82 | 0.82 | 86 | 1012.2 |
| 20260505085515 | 61 | 82 | 3.0 | 7.0 | 0.00 | 0.82 | 0.82 | 87 | 1012.1 |
| 20260505085015 | 61 | 69 | 2.0 | 5.0 | 0.00 | 0.82 | 0.82 | 87 | 1012.1 |
| 20260505084515 | 61 | 76 | 2.0 | 8.0 | 0.00 | 0.82 | 0.82 | 88 | 1012.0 |
| 20260505084015 | 61 | 97 | 2.0 | 8.0 | 0.00 | 0.82 | 0.82 | 88 | 1012.0 |
| 20260505083515 | 60 | 91 | 3.0 | 9.0 | 0.00 | 0.82 | 0.82 | 88 | 1012.0 |
| 20260505083015 | 60 | 89 | 4.0 | 9.0 | 0.00 | 0.82 | 0.82 | 89 | 1012.0 |
| 20260505082515 | 60 | 71 | 2.0 | 8.0 | 0.00 | 0.82 | 0.82 | 89 | 1011.9 |
| 20260505082015 | 60 | 72 | 3.0 | 8.0 | 0.00 | 0.82 | 0.82 | 90 | 1011.8 |
| 20260505081515 | 60 | 73 | 3.0 | 7.0 | 0.00 | 0.82 | 0.82 | 90 | 1011.7 |
| 20260505081035 | 59 | 74 | 2.0 | 8.0 | 0.00 | 0.82 | 0.82 | 90 | 1011.8 |
| 20260505080515 | 59 | 95 | 3.0 | 8.0 | 0.00 | 0.82 | 0.82 | 90 | 1011.8 |
| 20260505080015 | 59 | 95 | 3.0 | 8.0 | 0.00 | 0.82 | 0.82 | 90 | 1011.9 |
| 20260505075515 | 59 | 123 | 3.0 | 8.0 | 0.00 | 0.82 | 0.82 | 90 | 1012.0 |
| 20260505075015 | 59 | 118 | 2.0 | 6.0 | 0.01 | 0.82 | 0.82 | 90 | 1012.0 |
| 20260505074515 | 59 | 115 | 2.0 | 6.0 | 0.02 | 0.82 | 0.82 | 90 | 1012.0 |
| 20260505074015 | 59 | 117 | 2.0 | 7.0 | 0.02 | 0.82 | 0.82 | 90 | 1012.0 |
| 20260505073515 | 59 | 109 | 3.0 | 7.0 | 0.02 | 0.82 | 0.82 | 90 | 1012.0 |
| 20260505073015 | 59 | 111 | 2.0 | 5.0 | 0.02 | 0.82 | 0.82 | 90 | 1012.0 |
| 20260505072515 | 59 | 87 | 1.0 | 5.0 | 0.02 | 0.82 | 0.82 | 90 | 1012.0 |
| 20260505072015 | 59 | 81 | 2.0 | 5.0 | 0.02 | 0.82 | 0.82 | 90 | 1012.0 |
| 20260505071515 | 59 | 45 | 3.0 | 5.0 | 0.03 | 0.82 | 0.82 | 89 | 1012.0 |
| 20260505071015 | 59 | 39 | 0.0 | 4.0 | 0.03 | 0.82 | 0.82 | 89 | 1012.1 |
| 20260505070515 | 59 | 171 | 0.0 | 3.0 | 0.04 | 0.82 | 0.82 | 89 | 1012.2 |